GLS weather

Scholes International At Galveston Airport
Galveston, Texas, United States

Public forecast

Using degrees Fahrenheit for public forecast. Weather courtesy of forecast.io.

METAR (pilot weather report)

Retrieved 2019/09/23 01:52 UTC (29 minutes ago):

KGLS 230152Z AUTO 10007KT 10SM CLR 28/25 A3002 RMK AO2 SLP164 T02830250

TAF (pilot weather forecast)

Forecast is more than 12 hours old.

Retrieved 2019/09/22 00:27 UTC (1 day ago):

TAF KGLS 222321Z 2300/2324 12012KT P6SM SCT020 SCT250 FM231000 16008KT P6SM VCSH SCT020 BKN250 FM231700 14009KT P6SM SCT025 SCT250